createdAt,value
2019-06-27T00:01:06.662Z,49.17
2019-06-27T00:03:35.879Z,48.88
2019-06-27T00:06:05.194Z,48.85
2019-06-27T00:08:34.611Z,48.31
2019-06-27T00:11:04.218Z,48.60
2019-06-27T00:13:33.529Z,48.62
2019-06-27T00:16:02.862Z,48.64
2019-06-27T00:18:32.059Z,48.62
2019-06-27T00:21:04.447Z,48.81
2019-06-27T00:23:33.650Z,48.55
2019-06-27T00:26:03.186Z,48.70
2019-06-27T00:28:32.380Z,48.52
2019-06-27T00:31:01.651Z,48.45
2019-06-27T00:33:30.864Z,48.60
2019-06-27T00:36:00.117Z,48.79
2019-06-27T00:38:29.314Z,48.68
2019-06-27T00:40:58.519Z,48.64
2019-06-27T00:43:28.390Z,48.59
2019-06-27T00:45:57.722Z,48.56
2019-06-27T00:48:27.449Z,48.62
2019-06-27T00:50:56.626Z,48.66
2019-06-27T00:53:25.869Z,48.61
2019-06-27T00:55:55.069Z,48.81
2019-06-27T00:58:24.615Z,48.70
2019-06-27T01:00:53.813Z,49.02
2019-06-27T01:03:23.065Z,49.11
2019-06-27T01:05:52.278Z,49.02
2019-06-27T01:08:21.687Z,49.04
2019-06-27T01:10:50.901Z,49.19
2019-06-27T01:13:20.163Z,49.32
2019-06-27T01:15:49.366Z,49.41
2019-06-27T01:18:19.193Z,49.33
2019-06-27T01:20:48.389Z,49.46
2019-06-27T01:23:18.110Z,49.57
2019-06-27T01:25:47.714Z,49.58
2019-06-27T01:28:16.962Z,49.54
2019-06-27T01:30:46.492Z,49.55
2019-06-27T01:33:15.747Z,49.82
2019-06-27T01:35:44.948Z,49.82
2019-06-27T01:38:14.265Z,50.12
2019-06-27T01:40:43.825Z,50.09
2019-06-27T01:43:13.078Z,50.07
2019-06-27T01:45:47.419Z,50.11
2019-06-27T01:48:16.673Z,50.22
2019-06-27T01:50:45.930Z,50.23
2019-06-27T01:53:15.196Z,50.21
2019-06-27T01:55:44.394Z,50.28
2019-06-27T01:58:14.047Z,50.02
2019-06-27T02:00:43.301Z,50.06
2019-06-27T02:03:12.473Z,50.14
2019-06-27T02:05:41.733Z,50.20
2019-06-27T02:08:11.550Z,50.18
2019-06-27T02:10:40.842Z,50.16
2019-06-27T02:13:10.355Z,50.17
2019-06-27T02:15:39.599Z,50.13
2019-06-27T02:18:08.815Z,50.09
2019-06-27T02:20:38.076Z,50.11
2019-06-27T02:23:07.273Z,49.96
2019-06-27T02:25:36.794Z,50.12
2019-06-27T02:28:05.998Z,50.03
2019-06-27T02:30:39.992Z,49.81
2019-06-27T02:33:09.535Z,49.28
2019-06-27T02:35:42.518Z,49.31
2019-06-27T02:38:11.714Z,49.73
2019-06-27T02:40:41.264Z,49.66
2019-06-27T02:43:10.466Z,48.55
2019-06-27T02:45:39.658Z,48.73
2019-06-27T02:48:08.901Z,48.84
2019-06-27T02:50:38.150Z,48.68
2019-06-27T02:53:07.391Z,48.98
2019-06-27T02:55:36.594Z,49.77
2019-06-27T02:58:27.489Z,50.87
2019-06-27T03:00:36.764Z,51.43
2019-06-27T03:03:06.026Z,52.11
2019-06-27T03:05:35.229Z,53.43
2019-06-27T03:08:04.788Z,54.16
2019-06-27T03:10:33.973Z,54.57
2019-06-27T03:13:03.249Z,55.69
2019-06-27T03:15:32.789Z,55.78
2019-06-27T03:18:02.333Z,56.39
2019-06-27T03:20:31.534Z,56.81
2019-06-27T03:23:01.230Z,57.08
2019-06-27T03:25:30.436Z,57.52
2019-06-27T03:27:59.695Z,57.71
2019-06-27T03:30:28.908Z,58.27
2019-06-27T03:32:58.156Z,58.30
2019-06-27T03:35:27.517Z,58.41
2019-06-27T03:37:57.406Z,59.08
2019-06-27T03:40:26.669Z,59.07
2019-06-27T03:42:55.881Z,58.90
2019-06-27T03:45:25.127Z,58.71
2019-06-27T03:47:54.326Z,58.68
2019-06-27T03:50:23.624Z,58.61
2019-06-27T03:52:52.824Z,58.40
2019-06-27T03:55:22.093Z,58.43
2019-06-27T03:57:51.302Z,58.70
2019-06-27T04:00:27.539Z,58.51
2019-06-27T04:02:56.851Z,58.39
2019-06-27T04:05:26.587Z,58.20
2019-06-27T04:07:55.785Z,58.64
2019-06-27T04:10:25.208Z,58.79
2019-06-27T04:12:54.469Z,58.85
2019-06-27T04:15:23.720Z,58.94
2019-06-27T04:17:53.317Z,58.39
2019-06-27T04:20:22.606Z,58.00
2019-06-27T04:22:51.791Z,58.00
2019-06-27T04:25:21.892Z,57.88
2019-06-27T04:27:51.102Z,57.96
2019-06-27T04:30:20.360Z,57.75
2019-06-27T04:32:49.561Z,57.87
2019-06-27T04:35:18.850Z,57.69
2019-06-27T04:37:48.051Z,57.28
2019-06-27T04:40:17.259Z,56.85
2019-06-27T04:42:46.524Z,56.79
2019-06-27T04:45:16.084Z,56.46
2019-06-27T04:47:45.329Z,56.18
2019-06-27T04:50:14.852Z,55.87
2019-06-27T04:52:44.099Z,55.59
2019-06-27T04:55:13.308Z,55.33
2019-06-27T04:57:42.565Z,54.28
2019-06-27T05:00:13.471Z,54.29
2019-06-27T05:02:42.719Z,53.47
2019-06-27T05:05:11.920Z,53.30
2019-06-27T05:07:41.194Z,53.05
2019-06-27T05:10:10.423Z,52.70
2019-06-27T05:12:39.895Z,52.37
2019-06-27T05:15:09.151Z,51.81
2019-06-27T05:17:38.338Z,52.25
2019-06-27T05:20:07.614Z,51.97
2019-06-27T05:22:36.805Z,51.60
2019-06-27T05:25:06.477Z,51.57
2019-06-27T05:27:35.750Z,51.04
2019-06-27T05:30:09.893Z,50.25
2019-06-27T05:32:36.251Z,49.58
2019-06-27T05:35:05.890Z,49.87
2019-06-27T05:37:35.102Z,49.03
2019-06-27T05:40:04.642Z,48.99
2019-06-27T05:42:33.931Z,48.54
2019-06-27T05:45:03.090Z,48.85
2019-06-27T05:47:32.711Z,48.92
2019-06-27T05:50:01.990Z,48.73
2019-06-27T05:52:31.280Z,48.30
2019-06-27T05:55:00.798Z,48.23
2019-06-27T05:57:30.057Z,48.08
2019-06-27T05:59:59.370Z,48.15
2019-06-27T06:02:28.622Z,48.18
2019-06-27T06:04:57.853Z,47.80
2019-06-27T06:07:27.071Z,47.74
2019-06-27T06:09:56.380Z,47.62
2019-06-27T06:12:25.631Z,47.62
2019-06-27T06:14:54.823Z,47.42
2019-06-27T06:17:24.073Z,47.50
2019-06-27T06:19:53.330Z,47.06
2019-06-27T06:22:22.586Z,47.13
2019-06-27T06:24:52.074Z,47.65
2019-06-27T06:27:22.093Z,47.60
2019-06-27T06:29:51.307Z,46.48
2019-06-27T06:32:20.541Z,46.29
2019-06-27T06:34:50.509Z,46.43
2019-06-27T06:37:19.718Z,46.46
2019-06-27T06:42:24.010Z,46.86
2019-06-27T06:44:53.211Z,46.75
2019-06-27T06:47:22.414Z,46.65
2019-06-27T06:49:51.723Z,46.79
2019-06-27T06:52:20.927Z,47.11
2019-06-27T06:54:50.178Z,46.87
2019-06-27T06:57:19.498Z,46.63
2019-06-27T06:59:49.589Z,46.56
2019-06-27T07:02:19.136Z,45.48
2019-06-27T07:04:48.334Z,45.65
2019-06-27T07:07:17.537Z,45.68
2019-06-27T07:09:46.787Z,45.96
2019-06-27T07:12:15.982Z,45.71
2019-06-27T07:14:45.264Z,45.97
2019-06-27T07:17:14.746Z,46.48
2019-06-27T07:19:44.369Z,46.74
2019-06-27T07:22:13.570Z,46.02
2019-06-27T07:24:43.083Z,45.67
2019-06-27T07:27:13.709Z,46.27
2019-06-27T07:29:42.932Z,46.27
2019-06-27T07:32:12.186Z,45.77
2019-06-27T07:34:41.395Z,46.36
2019-06-27T07:37:10.652Z,46.69
2019-06-27T07:39:40.141Z,46.59
2019-06-27T07:42:09.396Z,46.25
2019-06-27T07:44:38.889Z,46.50
2019-06-27T07:47:08.149Z,46.17
2019-06-27T07:49:37.450Z,46.04
2019-06-27T07:52:06.697Z,45.91
2019-06-27T07:54:35.896Z,45.71
2019-06-27T07:57:05.438Z,45.48
2019-06-27T07:59:34.918Z,45.44
2019-06-27T08:02:04.175Z,45.61
2019-06-27T08:04:33.656Z,45.79
2019-06-27T08:07:02.907Z,45.95
2019-06-27T08:09:32.098Z,46.15
2019-06-27T08:12:01.371Z,46.42
2019-06-27T08:14:30.585Z,46.69
2019-06-27T08:16:59.776Z,46.89
2019-06-27T08:19:29.075Z,46.34
2019-06-27T08:21:58.704Z,46.67
2019-06-27T08:24:27.974Z,46.59
2019-06-27T08:26:57.164Z,46.71
2019-06-27T08:29:26.483Z,46.85
2019-06-27T08:31:55.901Z,46.54
2019-06-27T08:34:25.167Z,46.84
2019-06-27T08:36:54.366Z,46.98
2019-06-27T08:39:23.766Z,47.10
2019-06-27T08:41:53.243Z,47.19
2019-06-27T08:44:22.499Z,47.45
2019-06-27T08:46:51.691Z,46.46
2019-06-27T08:49:20.963Z,46.81
2019-06-27T08:51:50.279Z,46.23
2019-06-27T08:54:19.616Z,46.46
2019-06-27T08:56:48.823Z,46.52
2019-06-27T08:59:18.306Z,45.80
2019-06-27T09:01:47.581Z,45.81
2019-06-27T09:04:16.969Z,45.92
2019-06-27T09:06:46.178Z,45.92
2019-06-27T09:09:15.430Z,45.40
2019-06-27T09:11:44.705Z,44.52
2019-06-27T09:14:13.976Z,44.20
2019-06-27T09:16:46.452Z,44.73
2019-06-27T09:19:14.168Z,44.66
2019-06-27T09:21:43.394Z,44.72
2019-06-27T09:24:12.652Z,44.31
2019-06-27T09:26:41.868Z,44.04
2019-06-27T09:29:11.083Z,44.42
2019-06-27T09:31:40.680Z,44.34
2019-06-27T09:34:09.997Z,44.65
2019-06-27T09:36:42.609Z,44.81
2019-06-27T09:39:12.119Z,44.51
2019-06-27T09:41:42.723Z,44.80
2019-06-27T09:44:11.950Z,43.65
2019-06-27T09:46:41.479Z,43.80
2019-06-27T09:49:10.679Z,44.06
2019-06-27T09:51:39.992Z,43.58
2019-06-27T09:54:09.195Z,43.76
2019-06-27T09:56:38.576Z,44.10
2019-06-27T09:59:07.790Z,43.28
2019-06-27T10:01:37.035Z,43.13
2019-06-27T10:04:06.242Z,43.76
2019-06-27T10:06:35.510Z,44.09
2019-06-27T10:09:05.991Z,44.19
2019-06-27T10:11:35.240Z,44.62
2019-06-27T10:14:04.452Z,44.13
2019-06-27T10:16:33.803Z,45.04
2019-06-27T10:19:02.991Z,44.95
2019-06-27T10:21:32.257Z,44.49
2019-06-27T10:24:01.473Z,43.94
2019-06-27T10:26:30.737Z,43.34
2019-06-27T10:28:59.957Z,43.49
2019-06-27T10:31:29.208Z,43.93
2019-06-27T10:33:58.402Z,44.89
2019-06-27T10:36:27.658Z,44.80
2019-06-27T10:38:57.158Z,44.85
2019-06-27T10:41:26.415Z,45.06
2019-06-27T10:43:58.400Z,45.96
2019-06-27T10:46:27.015Z,46.33
2019-06-27T10:48:56.612Z,46.84
2019-06-27T10:51:26.010Z,47.25
2019-06-27T10:53:55.269Z,46.11
2019-06-27T10:56:24.484Z,45.46
2019-06-27T10:58:54.152Z,45.68
2019-06-27T11:01:23.365Z,45.94
2019-06-27T11:03:52.622Z,45.69
2019-06-27T11:06:21.830Z,44.94
2019-06-27T11:08:51.080Z,45.01
2019-06-27T11:11:20.290Z,45.26
2019-06-27T11:13:58.775Z,45.72
2019-06-27T11:16:20.503Z,45.39
2019-06-27T11:18:49.692Z,45.07
2019-06-27T11:21:18.968Z,45.34
2019-06-27T11:23:48.159Z,45.36
2019-06-27T11:26:17.480Z,44.80
2019-06-27T11:28:46.693Z,44.78
2019-06-27T11:31:16.349Z,44.69
2019-06-27T11:33:45.564Z,44.91
2019-06-27T11:36:14.813Z,44.81
2019-06-27T11:38:44.007Z,44.47
2019-06-27T11:41:13.305Z,44.19
2019-06-27T11:43:42.550Z,44.36
2019-06-27T11:46:11.814Z,44.36
2019-06-27T11:48:41.022Z,43.88
2019-06-27T11:51:10.280Z,44.33
2019-06-27T11:53:39.532Z,44.51
2019-06-27T11:56:08.732Z,44.36
2019-06-27T11:58:38.346Z,43.74
2019-06-27T12:01:07.675Z,43.31
2019-06-27T12:03:48.765Z,43.18
2019-06-27T12:06:07.884Z,43.80
2019-06-27T12:08:37.156Z,44.06
2019-06-27T12:11:06.388Z,44.16
2019-06-27T12:13:35.786Z,44.34
2019-06-27T12:16:05.398Z,43.85
2019-06-27T12:18:34.655Z,43.30
2019-06-27T12:21:06.145Z,43.51
2019-06-27T12:23:34.849Z,43.71
2019-06-27T12:26:04.066Z,43.60
2019-06-27T12:28:33.386Z,43.91
2019-06-27T12:31:10.286Z,44.21
2019-06-27T12:33:33.633Z,43.35
2019-06-27T12:36:02.848Z,42.49
2019-06-27T12:38:32.093Z,42.46
2019-06-27T12:41:01.424Z,42.11
2019-06-27T12:43:31.094Z,42.09
2019-06-27T12:46:00.278Z,42.73
2019-06-27T12:48:29.870Z,41.86
2019-06-27T12:50:59.120Z,42.98
2019-06-27T12:53:28.674Z,41.26
2019-06-27T12:55:57.887Z,41.31
2019-06-27T12:58:27.139Z,41.96
2019-06-27T13:00:56.357Z,42.46
2019-06-27T13:03:25.678Z,42.76
2019-06-27T13:05:55.266Z,42.59
2019-06-27T13:08:24.525Z,42.25
2019-06-27T13:10:53.755Z,41.91
2019-06-27T13:13:23.003Z,41.34
2019-06-27T13:15:52.207Z,40.93
2019-06-27T13:18:21.785Z,40.67
2019-06-27T13:20:57.668Z,40.58
2019-06-27T13:23:21.971Z,39.92
2019-06-27T13:25:51.179Z,39.67
2019-06-27T13:28:20.451Z,40.18
2019-06-27T13:30:49.793Z,40.88
2019-06-27T13:33:19.049Z,41.35
2019-06-27T13:35:49.230Z,41.46
2019-06-27T13:38:18.595Z,41.37
2019-06-27T13:40:47.860Z,41.16
2019-06-27T13:43:17.136Z,41.25
2019-06-27T13:45:46.339Z,41.22
2019-06-27T13:48:16.041Z,41.02
2019-06-27T13:50:45.808Z,41.08
2019-06-27T13:53:15.021Z,40.94
2019-06-27T13:55:44.309Z,40.67
2019-06-27T13:58:13.643Z,40.91
2019-06-27T14:00:45.277Z,40.93
2019-06-27T14:03:14.815Z,40.97
2019-06-27T14:05:44.080Z,40.93
2019-06-27T14:08:13.282Z,41.33
2019-06-27T14:10:42.541Z,41.23
2019-06-27T14:13:11.819Z,40.96
2019-06-27T14:15:41.199Z,41.21
2019-06-27T14:18:10.712Z,41.08
2019-06-27T14:20:39.967Z,40.77
2019-06-27T14:23:09.469Z,40.56
2019-06-27T14:25:38.714Z,40.65
2019-06-27T14:28:08.028Z,41.07
2019-06-27T14:30:37.273Z,41.12
2019-06-27T14:33:06.657Z,41.43
2019-06-27T14:35:36.630Z,41.59
2019-06-27T14:38:05.860Z,41.64
2019-06-27T14:40:35.167Z,40.91
2019-06-27T14:43:04.383Z,41.16
2019-06-27T14:45:33.651Z,40.50
2019-06-27T14:48:02.961Z,40.83
2019-06-27T14:50:32.531Z,41.27
2019-06-27T14:53:02.076Z,40.83
2019-06-27T14:55:31.363Z,40.37
2019-06-27T14:58:00.624Z,40.57
2019-06-27T15:00:29.872Z,39.62
2019-06-27T15:02:59.070Z,39.51
2019-06-27T15:05:33.020Z,39.59
2019-06-27T15:07:59.271Z,39.07
2019-06-27T15:10:28.772Z,38.47
2019-06-27T15:12:58.038Z,38.51
2019-06-27T15:15:27.242Z,38.37
2019-06-27T15:17:56.491Z,38.33
2019-06-27T15:20:25.694Z,38.40
2019-06-27T15:22:54.931Z,38.21
2019-06-27T15:25:27.937Z,38.41
2019-06-27T15:27:55.163Z,37.93
2019-06-27T15:30:24.374Z,37.45
2019-06-27T15:32:53.686Z,37.15
2019-06-27T15:35:22.926Z,37.29
2019-06-27T15:37:52.184Z,37.40
2019-06-27T15:40:21.717Z,37.25
2019-06-27T15:42:50.969Z,37.18
2019-06-27T15:45:20.179Z,36.99
2019-06-27T15:47:49.938Z,35.95
2019-06-27T15:50:19.142Z,36.72
2019-06-27T15:52:48.448Z,37.04
2019-06-27T15:55:17.654Z,36.73
2019-06-27T15:57:46.923Z,36.47
2019-06-27T16:00:16.504Z,36.09
2019-06-27T16:02:45.749Z,35.05
2019-06-27T16:05:15.138Z,34.33
2019-06-27T16:07:44.356Z,34.07
2019-06-27T16:10:15.090Z,34.50
2019-06-27T16:12:44.320Z,33.96
2019-06-27T16:15:13.890Z,33.56
2019-06-27T16:17:43.090Z,33.94
2019-06-27T16:20:14.060Z,33.64
2019-06-27T16:22:43.279Z,33.71
2019-06-27T16:25:13.157Z,32.81
2019-06-27T16:27:42.418Z,32.34
2019-06-27T16:30:13.177Z,33.04
2019-06-27T16:32:42.434Z,33.36
2019-06-27T16:35:11.752Z,33.47
2019-06-27T16:37:41.314Z,33.86
2019-06-27T16:40:10.954Z,33.95
2019-06-27T16:42:40.242Z,33.53
2019-06-27T16:45:09.752Z,33.27
2019-06-27T16:47:39.363Z,33.40
2019-06-27T16:50:09.341Z,33.26
2019-06-27T16:52:38.639Z,33.04
2019-06-27T16:55:08.119Z,33.39
2019-06-27T16:57:37.360Z,33.98
2019-06-27T17:00:07.052Z,34.54
2019-06-27T17:02:36.282Z,34.54
2019-06-27T17:05:06.125Z,34.77
2019-06-27T17:07:35.685Z,34.76
2019-06-27T17:10:05.539Z,34.76
2019-06-27T17:12:34.733Z,34.58
2019-06-27T17:15:04.176Z,34.60
2019-06-27T17:17:33.385Z,34.34
2019-06-27T17:20:02.655Z,34.57
2019-06-27T17:22:31.869Z,34.56
2019-06-27T17:25:01.084Z,34.77
2019-06-27T17:27:30.351Z,34.28
2019-06-27T17:29:59.753Z,33.74
2019-06-27T17:32:29.113Z,34.21
2019-06-27T17:34:58.329Z,34.39
2019-06-27T17:37:27.602Z,34.76
2019-06-27T17:39:56.807Z,35.02
2019-06-27T17:42:26.110Z,34.90
2019-06-27T17:44:55.722Z,34.94
2019-06-27T17:47:25.331Z,34.60
2019-06-27T17:49:54.661Z,34.84
2019-06-27T17:52:23.960Z,35.12
2019-06-27T17:54:53.523Z,35.02
2019-06-27T17:57:23.038Z,35.16
2019-06-27T17:59:52.401Z,35.61
2019-06-27T18:02:21.601Z,36.02
2019-06-27T18:04:51.223Z,36.18
2019-06-27T18:07:20.670Z,36.31
2019-06-27T18:09:50.263Z,36.37
2019-06-27T18:12:19.468Z,36.49
2019-06-27T18:14:48.751Z,36.63
2019-06-27T18:17:32.271Z,36.90
2019-06-27T18:19:49.636Z,36.71
2019-06-27T18:22:19.112Z,36.74
2019-06-27T18:24:48.361Z,36.89
2019-06-27T18:27:17.563Z,36.83
2019-06-27T18:29:48.198Z,36.81
2019-06-27T18:32:17.688Z,36.61
2019-06-27T18:34:46.940Z,36.63
2019-06-27T18:37:28.841Z,36.63
2019-06-27T18:39:47.388Z,36.89
2019-06-27T18:42:16.590Z,36.92
2019-06-27T18:44:46.097Z,36.95
2019-06-27T18:47:15.687Z,36.86
2019-06-27T18:49:45.488Z,36.81
2019-06-27T18:52:15.132Z,36.79
2019-06-27T18:54:44.376Z,37.43
2019-06-27T18:57:13.665Z,36.73
2019-06-27T18:59:42.897Z,36.77
2019-06-27T19:02:12.177Z,37.40
2019-06-27T19:04:41.367Z,37.18
2019-06-27T19:07:10.637Z,37.32
2019-06-27T19:09:39.835Z,37.00
2019-06-27T19:12:09.101Z,36.72
2019-06-27T19:14:38.299Z,35.95
2019-06-27T19:17:07.832Z,36.70
2019-06-27T19:19:38.990Z,36.49
2019-06-27T19:22:27.295Z,36.65
2019-06-27T19:25:05.116Z,37.18
2019-06-27T19:27:34.377Z,37.31
2019-06-27T19:30:03.841Z,36.90
2019-06-27T19:32:33.018Z,36.70
2019-06-27T19:35:02.258Z,36.55
2019-06-27T19:37:31.480Z,36.78
2019-06-27T19:40:00.740Z,36.67
2019-06-27T19:42:29.928Z,36.68
2019-06-27T19:44:59.178Z,36.63
2019-06-27T19:47:28.379Z,35.85
2019-06-27T19:49:57.899Z,35.16
2019-06-27T19:52:27.101Z,35.91
2019-06-27T19:54:56.443Z,36.05
2019-06-27T19:57:26.425Z,35.87
2019-06-27T19:59:56.306Z,36.22
2019-06-27T20:02:26.253Z,35.90
2019-06-27T20:04:55.623Z,35.16
2019-06-27T20:07:24.832Z,35.51
2019-06-27T20:09:54.028Z,36.37
2019-06-27T20:12:23.290Z,35.67
2019-06-27T20:14:52.940Z,36.00
2019-06-27T20:17:22.220Z,36.49
2019-06-27T20:19:51.723Z,34.74
2019-06-27T20:22:20.977Z,34.64
2019-06-27T20:24:50.182Z,35.13
2019-06-27T20:27:19.721Z,35.27
2019-06-27T20:29:48.916Z,35.62
2019-06-27T20:32:18.167Z,35.77
2019-06-27T20:34:47.655Z,35.42
2019-06-27T20:37:16.965Z,35.29
2019-06-27T20:39:46.439Z,35.51
2019-06-27T20:42:15.693Z,35.32
2019-06-27T20:44:44.890Z,35.85
2019-06-27T20:47:14.249Z,35.44
2019-06-27T20:49:43.447Z,35.42
2019-06-27T20:52:12.698Z,35.70
2019-06-27T20:54:42.114Z,35.56
2019-06-27T20:57:11.869Z,35.60
2019-06-27T20:59:41.077Z,34.97
2019-06-27T21:02:10.325Z,34.88
2019-06-27T21:04:39.659Z,34.93
2019-06-27T21:07:10.063Z,35.04
2019-06-27T21:09:39.633Z,35.45
2019-06-27T21:12:08.936Z,35.62
2019-06-27T21:14:38.481Z,34.08
2019-06-27T21:17:07.786Z,34.57
2019-06-27T21:19:37.290Z,35.06
2019-06-27T21:22:06.555Z,34.00
2019-06-27T21:24:36.120Z,34.81
2019-06-27T21:27:05.376Z,34.76
2019-06-27T21:29:34.608Z,35.26
2019-06-27T21:32:03.934Z,35.70
2019-06-27T21:34:33.227Z,34.26
2019-06-27T21:37:02.489Z,33.21
2019-06-27T21:39:32.005Z,34.12
2019-06-27T21:42:01.296Z,34.16
2019-06-27T21:44:30.492Z,34.42
2019-06-27T21:47:00.101Z,34.10
2019-06-27T21:49:29.422Z,33.23
2019-06-27T21:51:58.634Z,31.93
2019-06-27T21:54:27.954Z,30.74
2019-06-27T21:56:57.144Z,32.57
2019-06-27T21:59:26.392Z,30.80
2019-06-27T22:01:55.708Z,31.25
2019-06-27T22:04:25.098Z,31.65
2019-06-27T22:06:54.632Z,31.83
2019-06-27T22:09:25.429Z,31.79
2019-06-27T22:11:54.979Z,31.43
2019-06-27T22:14:24.227Z,32.33
2019-06-27T22:16:53.850Z,32.63
2019-06-27T22:19:23.151Z,31.37
2019-06-27T22:21:52.464Z,30.64
2019-06-27T22:24:21.667Z,30.62
2019-06-27T22:26:50.956Z,32.05
2019-06-27T22:29:20.157Z,29.77
2019-06-27T22:31:49.399Z,30.51
2019-06-27T22:34:18.707Z,29.83
2019-06-27T22:36:47.965Z,29.16
2019-06-27T22:39:40.429Z,29.41
2019-06-27T22:42:24.124Z,29.15
2019-06-27T22:45:11.172Z,28.42
2019-06-27T22:47:58.027Z,27.37
2019-06-27T22:50:45.996Z,28.45
2019-06-27T22:53:20.760Z,28.21
2019-06-27T22:55:49.915Z,28.62
2019-06-27T22:58:19.189Z,28.92
2019-06-27T23:00:48.377Z,28.94
2019-06-27T23:03:17.904Z,28.97
2019-06-27T23:05:47.096Z,28.50
2019-06-27T23:08:16.656Z,28.52
2019-06-27T23:10:46.137Z,29.16
2019-06-27T23:13:15.333Z,29.41
2019-06-27T23:15:45.271Z,29.20
2019-06-27T23:18:14.467Z,28.73
2019-06-27T23:20:43.709Z,28.50
2019-06-27T23:23:12.899Z,28.85
2019-06-27T23:25:42.183Z,28.96
2019-06-27T23:28:11.452Z,28.72
2019-06-27T23:30:41.089Z,29.48
2019-06-27T23:33:10.593Z,30.15
2019-06-27T23:35:40.014Z,30.30
2019-06-27T23:38:09.221Z,29.95
2019-06-27T23:40:38.477Z,30.25
2019-06-27T23:43:08.068Z,30.30
2019-06-27T23:45:37.877Z,30.30
2019-06-27T23:48:07.096Z,29.77
2019-06-27T23:50:36.767Z,29.97
2019-06-27T23:53:06.279Z,29.80
2019-06-27T23:55:35.642Z,29.09
2019-06-27T23:58:04.840Z,29.78
